Terminal Aerodrome Forecast
Issued by NWS Houston/Galveston, TX

Home | Current Version | Previous Version | Text Only | Print | Product List | Glossary On
Versions: 1 2 3 4 5 6 7 8 9 10 11 12 13 14 15
000
FTUS44 KHGX 162333
TAFGLS
TAF
KGLS 162333Z 1700/1724 10013KT P6SM VCSH OVC020
     FM170300 13015G25KT 2SM TSRA BKN007 OVC010CB
     FM170600 30012KT 4SM -SHRA BR OVC007
     FM170800 32010KT 4SM BR OVC007
     FM171200 36007KT 2SM BR BKN007 OVC015
     FM171800 08008KT P6SM BKN025 BKN250=

USA.gov is the U.S. government's official web portal to all federal, state and local government web resources and services.